sensor_id;sensor_type;location;lat;lon;timestamp;P1;durP1;ratioP1;P2;durP2;ratioP2
59054;SDS011;44845;51.444;7.460;2024-02-21T00:01:34;18.35;;;7.25;;
59054;SDS011;44845;51.444;7.460;2024-02-21T00:03:59;21.73;;;7.72;;
59054;SDS011;44845;51.444;7.460;2024-02-21T00:06:24;16.73;;;7.15;;
59054;SDS011;44845;51.444;7.460;2024-02-21T00:08:51;21.65;;;7.38;;
59054;SDS011;44845;51.444;7.460;2024-02-21T00:11:18;14.98;;;6.95;;
59054;SDS011;44845;51.444;7.460;2024-02-21T00:13:44;22.00;;;7.40;;
59054;SDS011;44845;51.444;7.460;2024-02-21T00:16:09;20.60;;;7.35;;
59054;SDS011;44845;51.444;7.460;2024-02-21T00:18:35;19.48;;;7.32;;
59054;SDS011;44845;51.444;7.460;2024-02-21T00:21:01;18.95;;;6.90;;
59054;SDS011;44845;51.444;7.460;2024-02-21T00:23:26;15.35;;;6.95;;
59054;SDS011;44845;51.444;7.460;2024-02-21T00:25:52;20.88;;;7.47;;
59054;SDS011;44845;51.444;7.460;2024-02-21T00:28:18;14.98;;;6.63;;
59054;SDS011;44845;51.444;7.460;2024-02-21T00:30:43;21.65;;;7.97;;
59054;SDS011;44845;51.444;7.460;2024-02-21T00:33:09;16.85;;;7.50;;
59054;SDS011;44845;51.444;7.460;2024-02-21T00:35:34;22.13;;;7.63;;
59054;SDS011;44845;51.444;7.460;2024-02-21T00:37:59;19.05;;;7.65;;
59054;SDS011;44845;51.444;7.460;2024-02-21T00:40:25;17.23;;;7.30;;
59054;SDS011;44845;51.444;7.460;2024-02-21T00:42:50;17.35;;;7.75;;
59054;SDS011;44845;51.444;7.460;2024-02-21T00:45:15;16.83;;;7.70;;
59054;SDS011;44845;51.444;7.460;2024-02-21T00:47:41;20.33;;;7.18;;
59054;SDS011;44845;51.444;7.460;2024-02-21T00:50:06;17.63;;;6.85;;
59054;SDS011;44845;51.444;7.460;2024-02-21T00:52:32;17.63;;;7.18;;
59054;SDS011;44845;51.444;7.460;2024-02-21T00:54:57;20.85;;;7.60;;
59054;SDS011;44845;51.444;7.460;2024-02-21T00:57:23;20.50;;;7.97;;
59054;SDS011;44845;51.444;7.460;2024-02-21T00:59:48;20.95;;;7.55;;
59054;SDS011;44845;51.444;7.460;2024-02-21T01:02:14;18.95;;;7.10;;
59054;SDS011;44845;51.444;7.460;2024-02-21T01:04:39;18.95;;;8.60;;
59054;SDS011;44845;51.444;7.460;2024-02-21T01:07:05;15.82;;;6.95;;
59054;SDS011;44845;51.444;7.460;2024-02-21T01:09:30;20.60;;;7.93;;
59054;SDS011;44845;51.444;7.460;2024-02-21T01:11:55;23.08;;;8.13;;
59054;SDS011;44845;51.444;7.460;2024-02-21T01:14:21;18.80;;;7.55;;
59054;SDS011;44845;51.444;7.460;2024-02-21T01:16:46;17.48;;;7.25;;
59054;SDS011;44845;51.444;7.460;2024-02-21T01:19:11;24.30;;;7.82;;
59054;SDS011;44845;51.444;7.460;2024-02-21T01:21:37;16.85;;;7.00;;
59054;SDS011;44845;51.444;7.460;2024-02-21T01:24:02;19.02;;;7.80;;
59054;SDS011;44845;51.444;7.460;2024-02-21T01:26:28;20.20;;;8.13;;
59054;SDS011;44845;51.444;7.460;2024-02-21T01:28:53;19.65;;;7.47;;
59054;SDS011;44845;51.444;7.460;2024-02-21T01:31:18;21.98;;;7.63;;
59054;SDS011;44845;51.444;7.460;2024-02-21T01:33:44;18.58;;;7.45;;
59054;SDS011;44845;51.444;7.460;2024-02-21T01:36:09;15.30;;;6.95;;
59054;SDS011;44845;51.444;7.460;2024-02-21T01:38:35;15.48;;;6.78;;
59054;SDS011;44845;51.444;7.460;2024-02-21T01:41:00;20.83;;;7.43;;
59054;SDS011;44845;51.444;7.460;2024-02-21T01:43:25;19.60;;;8.25;;
59054;SDS011;44845;51.444;7.460;2024-02-21T01:46:00;20.27;;;7.82;;
59054;SDS011;44845;51.444;7.460;2024-02-21T01:48:26;17.67;;;7.47;;
59054;SDS011;44845;51.444;7.460;2024-02-21T01:50:51;15.63;;;6.88;;
59054;SDS011;44845;51.444;7.460;2024-02-21T01:53:23;22.55;;;7.30;;
59054;SDS011;44845;51.444;7.460;2024-02-21T01:55:52;20.48;;;7.18;;
59054;SDS011;44845;51.444;7.460;2024-02-21T01:58:18;19.60;;;7.82;;
59054;SDS011;44845;51.444;7.460;2024-02-21T02:00:44;15.15;;;7.40;;
59054;SDS011;44845;51.444;7.460;2024-02-21T02:03:11;22.15;;;7.15;;
59054;SDS011;44845;51.444;7.460;2024-02-21T02:05:44;17.15;;;6.90;;
59054;SDS011;44845;51.444;7.460;2024-02-21T02:08:11;17.63;;;6.68;;
59054;SDS011;44845;51.444;7.460;2024-02-21T02:10:39;17.25;;;7.13;;
59054;SDS011;44845;51.444;7.460;2024-02-21T02:13:05;20.10;;;7.03;;
59054;SDS011;44845;51.444;7.460;2024-02-21T02:15:43;17.77;;;7.03;;
59054;SDS011;44845;51.444;7.460;2024-02-21T02:18:13;22.92;;;7.63;;
59054;SDS011;44845;51.444;7.460;2024-02-21T02:20:40;18.25;;;8.00;;
59054;SDS011;44845;51.444;7.460;2024-02-21T02:25:52;15.23;;;7.22;;
59054;SDS011;44845;51.444;7.460;2024-02-21T02:28:18;14.95;;;7.25;;
59054;SDS011;44845;51.444;7.460;2024-02-21T02:30:43;16.77;;;6.82;;
59054;SDS011;44845;51.444;7.460;2024-02-21T02:33:09;18.38;;;7.90;;
59054;SDS011;44845;51.444;7.460;2024-02-21T02:35:35;15.18;;;7.00;;
59054;SDS011;44845;51.444;7.460;2024-02-21T02:38:01;21.08;;;7.72;;
59054;SDS011;44845;51.444;7.460;2024-02-21T02:40:27;15.43;;;6.45;;
59054;SDS011;44845;51.444;7.460;2024-02-21T02:42:52;20.38;;;7.20;;
59054;SDS011;44845;51.444;7.460;2024-02-21T02:45:20;18.75;;;7.53;;
59054;SDS011;44845;51.444;7.460;2024-02-21T02:47:48;18.33;;;7.05;;
59054;SDS011;44845;51.444;7.460;2024-02-21T02:50:13;22.60;;;7.82;;
59054;SDS011;44845;51.444;7.460;2024-02-21T02:52:39;19.27;;;7.20;;
59054;SDS011;44845;51.444;7.460;2024-02-21T02:55:04;17.90;;;7.30;;
59054;SDS011;44845;51.444;7.460;2024-02-21T02:57:30;17.10;;;6.70;;
59054;SDS011;44845;51.444;7.460;2024-02-21T02:59:56;16.52;;;7.03;;
59054;SDS011;44845;51.444;7.460;2024-02-21T03:02:21;18.65;;;7.18;;
59054;SDS011;44845;51.444;7.460;2024-02-21T03:04:47;16.83;;;6.78;;
59054;SDS011;44845;51.444;7.460;2024-02-21T03:07:13;16.65;;;6.53;;
59054;SDS011;44845;51.444;7.460;2024-02-21T03:09:39;19.50;;;6.13;;
59054;SDS011;44845;51.444;7.460;2024-02-21T03:12:05;20.55;;;7.18;;
59054;SDS011;44845;51.444;7.460;2024-02-21T03:14:31;14.65;;;6.30;;
59054;SDS011;44845;51.444;7.460;2024-02-21T03:17:00;16.67;;;6.55;;
59054;SDS011;44845;51.444;7.460;2024-02-21T03:19:27;13.10;;;5.40;;
59054;SDS011;44845;51.444;7.460;2024-02-21T03:21:53;16.80;;;6.55;;
59054;SDS011;44845;51.444;7.460;2024-02-21T03:24:18;14.85;;;6.22;;
59054;SDS011;44845;51.444;7.460;2024-02-21T03:26:44;15.05;;;6.30;;
59054;SDS011;44845;51.444;7.460;2024-02-21T03:29:11;20.63;;;6.63;;
59054;SDS011;44845;51.444;7.460;2024-02-21T03:31:36;17.80;;;6.78;;
59054;SDS011;44845;51.444;7.460;2024-02-21T03:34:02;18.50;;;5.72;;
59054;SDS011;44845;51.444;7.460;2024-02-21T03:36:27;14.45;;;6.50;;
59054;SDS011;44845;51.444;7.460;2024-02-21T03:38:54;14.88;;;6.03;;
59054;SDS011;44845;51.444;7.460;2024-02-21T03:41:19;16.33;;;6.20;;
59054;SDS011;44845;51.444;7.460;2024-02-21T03:43:44;12.13;;;5.53;;
59054;SDS011;44845;51.444;7.460;2024-02-21T03:46:12;12.38;;;5.85;;
59054;SDS011;44845;51.444;7.460;2024-02-21T03:48:38;19.23;;;6.32;;
59054;SDS011;44845;51.444;7.460;2024-02-21T03:51:03;13.75;;;6.57;;
59054;SDS011;44845;51.444;7.460;2024-02-21T03:53:29;14.40;;;6.60;;
59054;SDS011;44845;51.444;7.460;2024-02-21T03:55:55;16.17;;;5.60;;
59054;SDS011;44845;51.444;7.460;2024-02-21T03:58:21;18.33;;;5.88;;
59054;SDS011;44845;51.444;7.460;2024-02-21T04:00:46;15.55;;;6.18;;
59054;SDS011;44845;51.444;7.460;2024-02-21T04:03:12;17.27;;;5.95;;
59054;SDS011;44845;51.444;7.460;2024-02-21T04:05:37;15.15;;;5.57;;
59054;SDS011;44845;51.444;7.460;2024-02-21T04:08:05;15.70;;;5.68;;
59054;SDS011;44845;51.444;7.460;2024-02-21T04:10:31;16.15;;;6.00;;
59054;SDS011;44845;51.444;7.460;2024-02-21T04:12:56;13.80;;;5.65;;
59054;SDS011;44845;51.444;7.460;2024-02-21T04:15:22;18.95;;;5.95;;
59054;SDS011;44845;51.444;7.460;2024-02-21T04:17:47;18.50;;;6.40;;
59054;SDS011;44845;51.444;7.460;2024-02-21T04:20:14;14.25;;;6.22;;
59054;SDS011;44845;51.444;7.460;2024-02-21T04:22:41;18.35;;;6.20;;
59054;SDS011;44845;51.444;7.460;2024-02-21T04:25:08;15.48;;;6.00;;
59054;SDS011;44845;51.444;7.460;2024-02-21T04:27:34;14.02;;;5.65;;
59054;SDS011;44845;51.444;7.460;2024-02-21T04:29:59;15.32;;;6.05;;
59054;SDS011;44845;51.444;7.460;2024-02-21T04:32:24;17.25;;;6.18;;
59054;SDS011;44845;51.444;7.460;2024-02-21T04:34:52;14.80;;;6.18;;
59054;SDS011;44845;51.444;7.460;2024-02-21T04:37:17;16.33;;;6.43;;
59054;SDS011;44845;51.444;7.460;2024-02-21T04:39:43;22.02;;;6.25;;
59054;SDS011;44845;51.444;7.460;2024-02-21T04:42:09;15.95;;;6.10;;
59054;SDS011;44845;51.444;7.460;2024-02-21T04:44:34;18.15;;;5.28;;
59054;SDS011;44845;51.444;7.460;2024-02-21T04:46:59;18.65;;;5.18;;
59054;SDS011;44845;51.444;7.460;2024-02-21T04:49:25;12.18;;;5.28;;
59054;SDS011;44845;51.444;7.460;2024-02-21T04:51:50;13.32;;;5.85;;
59054;SDS011;44845;51.444;7.460;2024-02-21T04:54:15;12.73;;;5.60;;
59054;SDS011;44845;51.444;7.460;2024-02-21T04:56:41;13.18;;;4.57;;
59054;SDS011;44845;51.444;7.460;2024-02-21T04:59:06;11.10;;;6.22;;
59054;SDS011;44845;51.444;7.460;2024-02-21T05:01:31;17.10;;;5.63;;
59054;SDS011;44845;51.444;7.460;2024-02-21T05:03:57;13.52;;;5.38;;
59054;SDS011;44845;51.444;7.460;2024-02-21T05:06:22;12.38;;;5.65;;
59054;SDS011;44845;51.444;7.460;2024-02-21T05:08:47;14.63;;;5.55;;
59054;SDS011;44845;51.444;7.460;2024-02-21T05:11:13;13.65;;;6.07;;
59054;SDS011;44845;51.444;7.460;2024-02-21T05:13:38;13.45;;;5.57;;
59054;SDS011;44845;51.444;7.460;2024-02-21T05:16:04;12.77;;;4.90;;
59054;SDS011;44845;51.444;7.460;2024-02-21T05:18:29;13.70;;;5.00;;
59054;SDS011;44845;51.444;7.460;2024-02-21T05:20:55;13.45;;;5.20;;
59054;SDS011;44845;51.444;7.460;2024-02-21T05:23:20;15.35;;;5.45;;
59054;SDS011;44845;51.444;7.460;2024-02-21T05:25:45;14.18;;;4.72;;
59054;SDS011;44845;51.444;7.460;2024-02-21T05:28:11;9.75;;;5.05;;
59054;SDS011;44845;51.444;7.460;2024-02-21T05:30:37;13.15;;;4.68;;
59054;SDS011;44845;51.444;7.460;2024-02-21T05:33:06;8.38;;;4.43;;
59054;SDS011;44845;51.444;7.460;2024-02-21T05:35:31;8.68;;;4.57;;
59054;SDS011;44845;51.444;7.460;2024-02-21T05:37:56;11.40;;;4.72;;
59054;SDS011;44845;51.444;7.460;2024-02-21T05:40:22;12.63;;;4.35;;
59054;SDS011;44845;51.444;7.460;2024-02-21T05:42:48;9.05;;;4.88;;
59054;SDS011;44845;51.444;7.460;2024-02-21T05:45:13;11.85;;;4.05;;
59054;SDS011;44845;51.444;7.460;2024-02-21T05:47:40;12.18;;;5.35;;
59054;SDS011;44845;51.444;7.460;2024-02-21T05:50:06;14.98;;;5.07;;
59054;SDS011;44845;51.444;7.460;2024-02-21T05:52:31;9.48;;;4.55;;
59054;SDS011;44845;51.444;7.460;2024-02-21T05:54:56;11.13;;;4.53;;
59054;SDS011;44845;51.444;7.460;2024-02-21T05:57:22;10.73;;;4.25;;
59054;SDS011;44845;51.444;7.460;2024-02-21T05:59:47;12.15;;;4.75;;
59054;SDS011;44845;51.444;7.460;2024-02-21T06:02:12;9.15;;;4.22;;
59054;SDS011;44845;51.444;7.460;2024-02-21T06:04:38;11.85;;;4.78;;
59054;SDS011;44845;51.444;7.460;2024-02-21T06:07:04;11.77;;;4.40;;
59054;SDS011;44845;51.444;7.460;2024-02-21T06:09:30;11.38;;;4.40;;
59054;SDS011;44845;51.444;7.460;2024-02-21T06:11:55;9.05;;;3.95;;
59054;SDS011;44845;51.444;7.460;2024-02-21T06:14:20;11.48;;;4.68;;
59054;SDS011;44845;51.444;7.460;2024-02-21T06:16:46;13.68;;;4.60;;
59054;SDS011;44845;51.444;7.460;2024-02-21T06:19:11;8.80;;;3.83;;
59054;SDS011;44845;51.444;7.460;2024-02-21T06:21:36;10.75;;;4.32;;
59054;SDS011;44845;51.444;7.460;2024-02-21T06:24:02;9.93;;;4.57;;
59054;SDS011;44845;51.444;7.460;2024-02-21T06:26:28;10.18;;;4.20;;
59054;SDS011;44845;51.444;7.460;2024-02-21T06:28:53;11.30;;;3.78;;
59054;SDS011;44845;51.444;7.460;2024-02-21T06:31:19;12.50;;;3.97;;
59054;SDS011;44845;51.444;7.460;2024-02-21T06:33:44;9.80;;;3.83;;
59054;SDS011;44845;51.444;7.460;2024-02-21T06:36:09;8.18;;;4.10;;
59054;SDS011;44845;51.444;7.460;2024-02-21T06:38:35;7.82;;;3.60;;
59054;SDS011;44845;51.444;7.460;2024-02-21T06:41:00;12.43;;;3.97;;
59054;SDS011;44845;51.444;7.460;2024-02-21T06:43:27;10.00;;;3.97;;
59054;SDS011;44845;51.444;7.460;2024-02-21T06:45:52;11.30;;;3.70;;
59054;SDS011;44845;51.444;7.460;2024-02-21T06:48:19;7.60;;;3.28;;
59054;SDS011;44845;51.444;7.460;2024-02-21T06:50:44;12.20;;;3.40;;
59054;SDS011;44845;51.444;7.460;2024-02-21T06:53:10;6.65;;;3.33;;
59054;SDS011;44845;51.444;7.460;2024-02-21T06:55:35;10.55;;;3.38;;
59054;SDS011;44845;51.444;7.460;2024-02-21T06:58:01;9.68;;;3.60;;
59054;SDS011;44845;51.444;7.460;2024-02-21T07:00:27;6.30;;;3.20;;
59054;SDS011;44845;51.444;7.460;2024-02-21T07:02:53;7.13;;;2.95;;
59054;SDS011;44845;51.444;7.460;2024-02-21T07:05:19;6.47;;;2.78;;
59054;SDS011;44845;51.444;7.460;2024-02-21T07:07:44;8.98;;;2.60;;
59054;SDS011;44845;51.444;7.460;2024-02-21T07:10:10;8.10;;;3.35;;
59054;SDS011;44845;51.444;7.460;2024-02-21T07:12:36;8.18;;;3.38;;
59054;SDS011;44845;51.444;7.460;2024-02-21T07:15:03;8.23;;;3.30;;
59054;SDS011;44845;51.444;7.460;2024-02-21T07:17:30;11.80;;;3.50;;
59054;SDS011;44845;51.444;7.460;2024-02-21T07:19:55;11.27;;;3.50;;
59054;SDS011;44845;51.444;7.460;2024-02-21T07:22:22;11.30;;;3.63;;
59054;SDS011;44845;51.444;7.460;2024-02-21T07:24:47;9.63;;;3.60;;
59054;SDS011;44845;51.444;7.460;2024-02-21T07:27:13;8.20;;;3.20;;
59054;SDS011;44845;51.444;7.460;2024-02-21T07:29:40;6.15;;;3.60;;
59054;SDS011;44845;51.444;7.460;2024-02-21T07:32:05;11.15;;;3.95;;
59054;SDS011;44845;51.444;7.460;2024-02-21T07:34:30;8.55;;;3.42;;
59054;SDS011;44845;51.444;7.460;2024-02-21T07:36:56;7.03;;;3.47;;
59054;SDS011;44845;51.444;7.460;2024-02-21T07:39:22;9.07;;;3.38;;
59054;SDS011;44845;51.444;7.460;2024-02-21T07:41:47;11.32;;;3.40;;
59054;SDS011;44845;51.444;7.460;2024-02-21T07:44:14;8.77;;;3.42;;
59054;SDS011;44845;51.444;7.460;2024-02-21T07:46:39;7.32;;;3.53;;
59054;SDS011;44845;51.444;7.460;2024-02-21T07:49:05;8.65;;;3.42;;
59054;SDS011;44845;51.444;7.460;2024-02-21T07:51:30;9.48;;;3.55;;
59054;SDS011;44845;51.444;7.460;2024-02-21T07:53:55;9.02;;;4.18;;
59054;SDS011;44845;51.444;7.460;2024-02-21T07:56:21;7.20;;;3.50;;
59054;SDS011;44845;51.444;7.460;2024-02-21T07:58:46;7.65;;;3.30;;
59054;SDS011;44845;51.444;7.460;2024-02-21T08:01:11;13.00;;;4.55;;
59054;SDS011;44845;51.444;7.460;2024-02-21T08:03:43;11.70;;;4.10;;
59054;SDS011;44845;51.444;7.460;2024-02-21T08:06:11;14.32;;;4.43;;
59054;SDS011;44845;51.444;7.460;2024-02-21T08:08:37;12.70;;;4.28;;
59054;SDS011;44845;51.444;7.460;2024-02-21T08:11:02;9.35;;;4.07;;
59054;SDS011;44845;51.444;7.460;2024-02-21T08:13:28;10.32;;;4.13;;
59054;SDS011;44845;51.444;7.460;2024-02-21T08:15:53;12.43;;;4.15;;
59054;SDS011;44845;51.444;7.460;2024-02-21T08:18:19;7.47;;;3.95;;
59054;SDS011;44845;51.444;7.460;2024-02-21T08:20:44;10.98;;;4.65;;
59054;SDS011;44845;51.444;7.460;2024-02-21T08:23:09;9.45;;;4.10;;
59054;SDS011;44845;51.444;7.460;2024-02-21T08:25:35;12.27;;;3.97;;
59054;SDS011;44845;51.444;7.460;2024-02-21T08:28:00;8.80;;;3.85;;
59054;SDS011;44845;51.444;7.460;2024-02-21T08:30:26;8.40;;;3.83;;
59054;SDS011;44845;51.444;7.460;2024-02-21T08:32:51;8.60;;;3.97;;
59054;SDS011;44845;51.444;7.460;2024-02-21T08:35:17;8.32;;;3.40;;
59054;SDS011;44845;51.444;7.460;2024-02-21T08:37:47;12.95;;;3.90;;
59054;SDS011;44845;51.444;7.460;2024-02-21T08:40:13;7.15;;;3.53;;
59054;SDS011;44845;51.444;7.460;2024-02-21T08:42:42;12.13;;;3.38;;
59054;SDS011;44845;51.444;7.460;2024-02-21T08:45:08;10.65;;;3.40;;
59054;SDS011;44845;51.444;7.460;2024-02-21T08:47:33;8.27;;;3.35;;
59054;SDS011;44845;51.444;7.460;2024-02-21T08:50:00;5.93;;;2.55;;
59054;SDS011;44845;51.444;7.460;2024-02-21T08:52:26;6.65;;;3.25;;
59054;SDS011;44845;51.444;7.460;2024-02-21T08:54:51;11.60;;;3.38;;
59054;SDS011;44845;51.444;7.460;2024-02-21T08:57:18;9.35;;;3.53;;
59054;SDS011;44845;51.444;7.460;2024-02-21T08:59:44;13.23;;;4.70;;
59054;SDS011;44845;51.444;7.460;2024-02-21T09:02:09;13.05;;;4.53;;
59054;SDS011;44845;51.444;7.460;2024-02-21T09:04:34;10.20;;;3.92;;
59054;SDS011;44845;51.444;7.460;2024-02-21T09:07:00;15.75;;;4.95;;
59054;SDS011;44845;51.444;7.460;2024-02-21T09:09:25;11.10;;;4.90;;
59054;SDS011;44845;51.444;7.460;2024-02-21T09:11:50;14.65;;;4.97;;
59054;SDS011;44845;51.444;7.460;2024-02-21T09:14:16;7.53;;;4.13;;
59054;SDS011;44845;51.444;7.460;2024-02-21T09:16:42;9.77;;;3.95;;
59054;SDS011;44845;51.444;7.460;2024-02-21T09:19:07;12.30;;;5.22;;
59054;SDS011;44845;51.444;7.460;2024-02-21T09:21:35;10.48;;;4.80;;
59054;SDS011;44845;51.444;7.460;2024-02-21T09:24:01;12.23;;;4.88;;
59054;SDS011;44845;51.444;7.460;2024-02-21T09:26:27;12.02;;;4.95;;
59054;SDS011;44845;51.444;7.460;2024-02-21T09:28:52;9.75;;;5.43;;
59054;SDS011;44845;51.444;7.460;2024-02-21T09:31:18;7.47;;;4.20;;
59054;SDS011;44845;51.444;7.460;2024-02-21T09:33:43;12.25;;;5.10;;
59054;SDS011;44845;51.444;7.460;2024-02-21T09:36:08;15.32;;;4.93;;
59054;SDS011;44845;51.444;7.460;2024-02-21T09:38:34;11.18;;;4.50;;
59054;SDS011;44845;51.444;7.460;2024-02-21T09:41:00;9.60;;;3.63;;
59054;SDS011;44845;51.444;7.460;2024-02-21T09:43:33;12.02;;;4.07;;
59054;SDS011;44845;51.444;7.460;2024-02-21T09:45:59;10.93;;;4.22;;
59054;SDS011;44845;51.444;7.460;2024-02-21T09:48:38;7.95;;;3.45;;
59054;SDS011;44845;51.444;7.460;2024-02-21T09:51:06;14.48;;;4.00;;
59054;SDS011;44845;51.444;7.460;2024-02-21T09:53:34;12.00;;;3.75;;
59054;SDS011;44845;51.444;7.460;2024-02-21T09:56:02;9.07;;;3.03;;
59054;SDS011;44845;51.444;7.460;2024-02-21T09:58:30;8.32;;;3.20;;
59054;SDS011;44845;51.444;7.460;2024-02-21T10:00:55;14.35;;;4.20;;
59054;SDS011;44845;51.444;7.460;2024-02-21T10:03:22;9.05;;;3.58;;
59054;SDS011;44845;51.444;7.460;2024-02-21T10:05:48;8.60;;;3.47;;
59054;SDS011;44845;51.444;7.460;2024-02-21T10:08:17;11.98;;;3.20;;
59054;SDS011;44845;51.444;7.460;2024-02-21T10:10:43;13.40;;;2.70;;
59054;SDS011;44845;51.444;7.460;2024-02-21T10:13:09;12.60;;;3.70;;
59054;SDS011;44845;51.444;7.460;2024-02-21T10:15:35;10.50;;;3.15;;
59054;SDS011;44845;51.444;7.460;2024-02-21T10:18:01;13.88;;;3.95;;
59054;SDS011;44845;51.444;7.460;2024-02-21T10:20:28;11.02;;;3.38;;
59054;SDS011;44845;51.444;7.460;2024-02-21T10:23:03;11.27;;;3.10;;
59054;SDS011;44845;51.444;7.460;2024-02-21T10:25:33;9.70;;;3.70;;
59054;SDS011;44845;51.444;7.460;2024-02-21T10:28:06;10.17;;;3.30;;
59054;SDS011;44845;51.444;7.460;2024-02-21T10:30:32;15.85;;;3.70;;
59054;SDS011;44845;51.444;7.460;2024-02-21T10:32:57;8.98;;;3.40;;
59054;SDS011;44845;51.444;7.460;2024-02-21T10:35:29;11.18;;;3.45;;
59054;SDS011;44845;51.444;7.460;2024-02-21T10:37:59;9.02;;;3.28;;
59054;SDS011;44845;51.444;7.460;2024-02-21T10:40:25;9.27;;;3.83;;
59054;SDS011;44845;51.444;7.460;2024-02-21T10:42:55;10.48;;;3.67;;
59054;SDS011;44845;51.444;7.460;2024-02-21T10:45:31;10.52;;;3.33;;
59054;SDS011;44845;51.444;7.460;2024-02-21T10:48:22;11.27;;;3.60;;
59054;SDS011;44845;51.444;7.460;2024-02-21T10:56:20;11.60;;;4.47;;
59054;SDS011;44845;51.444;7.460;2024-02-21T10:58:49;13.55;;;4.28;;
59054;SDS011;44845;51.444;7.460;2024-02-21T11:01:14;11.35;;;4.75;;
59054;SDS011;44845;51.444;7.460;2024-02-21T11:03:41;12.65;;;4.57;;
59054;SDS011;44845;51.444;7.460;2024-02-21T11:06:10;11.00;;;4.80;;
59054;SDS011;44845;51.444;7.460;2024-02-21T11:08:37;15.10;;;5.38;;
59054;SDS011;44845;51.444;7.460;2024-02-21T11:11:02;11.00;;;4.93;;
59054;SDS011;44845;51.444;7.460;2024-02-21T11:13:30;10.30;;;4.50;;
59054;SDS011;44845;51.444;7.460;2024-02-21T11:16:07;10.38;;;3.75;;
59054;SDS011;44845;51.444;7.460;2024-02-21T11:18:34;14.05;;;4.03;;
59054;SDS011;44845;51.444;7.460;2024-02-21T11:21:00;9.95;;;4.00;;
59054;SDS011;44845;51.444;7.460;2024-02-21T11:23:26;9.15;;;4.03;;
59054;SDS011;44845;51.444;7.460;2024-02-21T11:25:52;11.65;;;3.78;;
59054;SDS011;44845;51.444;7.460;2024-02-21T11:28:17;8.95;;;3.20;;
59054;SDS011;44845;51.444;7.460;2024-02-21T11:30:50;9.95;;;3.97;;
59054;SDS011;44845;51.444;7.460;2024-02-21T11:33:16;11.07;;;3.50;;
59054;SDS011;44845;51.444;7.460;2024-02-21T11:35:41;10.68;;;3.72;;
59054;SDS011;44845;51.444;7.460;2024-02-21T11:38:07;7.80;;;3.95;;
59054;SDS011;44845;51.444;7.460;2024-02-21T11:40:34;11.23;;;3.40;;
59054;SDS011;44845;51.444;7.460;2024-02-21T11:42:59;10.63;;;3.47;;
59054;SDS011;44845;51.444;7.460;2024-02-21T11:45:25;10.43;;;3.17;;
59054;SDS011;44845;51.444;7.460;2024-02-21T11:47:52;8.55;;;3.10;;
59054;SDS011;44845;51.444;7.460;2024-02-21T11:50:17;9.15;;;2.50;;
59054;SDS011;44845;51.444;7.460;2024-02-21T11:52:43;8.30;;;2.92;;
59054;SDS011;44845;51.444;7.460;2024-02-21T11:55:08;6.65;;;2.55;;
59054;SDS011;44845;51.444;7.460;2024-02-21T11:57:33;10.13;;;2.97;;
59054;SDS011;44845;51.444;7.460;2024-02-21T12:00:10;5.63;;;2.38;;
59054;SDS011;44845;51.444;7.460;2024-02-21T12:02:40;7.47;;;2.55;;
59054;SDS011;44845;51.444;7.460;2024-02-21T12:05:05;6.70;;;2.28;;
59054;SDS011;44845;51.444;7.460;2024-02-21T12:07:31;11.30;;;2.67;;
59054;SDS011;44845;51.444;7.460;2024-02-21T12:09:58;8.02;;;2.55;;
59054;SDS011;44845;51.444;7.460;2024-02-21T12:12:25;8.57;;;2.53;;
59054;SDS011;44845;51.444;7.460;2024-02-21T12:14:56;6.68;;;2.50;;
59054;SDS011;44845;51.444;7.460;2024-02-21T12:17:24;7.60;;;2.40;;
59054;SDS011;44845;51.444;7.460;2024-02-21T12:19:50;9.27;;;2.63;;
59054;SDS011;44845;51.444;7.460;2024-02-21T12:22:16;8.85;;;2.55;;
59054;SDS011;44845;51.444;7.460;2024-02-21T12:24:43;9.48;;;2.20;;
59054;SDS011;44845;51.444;7.460;2024-02-21T12:27:12;10.38;;;2.10;;
59054;SDS011;44845;51.444;7.460;2024-02-21T12:29:38;7.75;;;2.60;;
59054;SDS011;44845;51.444;7.460;2024-02-21T12:32:04;9.80;;;2.38;;
59054;SDS011;44845;51.444;7.460;2024-02-21T12:34:29;8.82;;;2.75;;
59054;SDS011;44845;51.444;7.460;2024-02-21T12:36:57;10.43;;;2.40;;
59054;SDS011;44845;51.444;7.460;2024-02-21T12:39:23;10.20;;;2.30;;
59054;SDS011;44845;51.444;7.460;2024-02-21T12:41:49;5.82;;;1.95;;
59054;SDS011;44845;51.444;7.460;2024-02-21T12:44:14;5.65;;;2.25;;
59054;SDS011;44845;51.444;7.460;2024-02-21T12:46:41;8.07;;;2.55;;
59054;SDS011;44845;51.444;7.460;2024-02-21T12:49:06;7.95;;;2.40;;
59054;SDS011;44845;51.444;7.460;2024-02-21T12:51:34;7.05;;;2.17;;
59054;SDS011;44845;51.444;7.460;2024-02-21T12:54:00;8.23;;;1.92;;
59054;SDS011;44845;51.444;7.460;2024-02-21T12:56:27;8.88;;;2.47;;
59054;SDS011;44845;51.444;7.460;2024-02-21T12:58:53;8.77;;;2.75;;
59054;SDS011;44845;51.444;7.460;2024-02-21T13:01:18;7.43;;;2.42;;
59054;SDS011;44845;51.444;7.460;2024-02-21T13:03:44;6.38;;;2.42;;
59054;SDS011;44845;51.444;7.460;2024-02-21T13:06:11;8.05;;;2.20;;
59054;SDS011;44845;51.444;7.460;2024-02-21T13:08:37;12.65;;;2.80;;
59054;SDS011;44845;51.444;7.460;2024-02-21T13:11:03;8.88;;;2.45;;
59054;SDS011;44845;51.444;7.460;2024-02-21T13:13:29;10.65;;;2.30;;
59054;SDS011;44845;51.444;7.460;2024-02-21T13:15:54;10.02;;;2.60;;
59054;SDS011;44845;51.444;7.460;2024-02-21T13:18:20;8.90;;;2.63;;
59054;SDS011;44845;51.444;7.460;2024-02-21T13:20:45;8.07;;;2.13;;
59054;SDS011;44845;51.444;7.460;2024-02-21T13:23:10;10.05;;;2.63;;
59054;SDS011;44845;51.444;7.460;2024-02-21T13:25:36;10.40;;;2.53;;
59054;SDS011;44845;51.444;7.460;2024-02-21T13:28:01;7.25;;;1.95;;
59054;SDS011;44845;51.444;7.460;2024-02-21T13:30:28;8.15;;;1.98;;
59054;SDS011;44845;51.444;7.460;2024-02-21T13:32:53;8.70;;;1.95;;
59054;SDS011;44845;51.444;7.460;2024-02-21T13:35:19;10.98;;;2.38;;
59054;SDS011;44845;51.444;7.460;2024-02-21T13:37:45;8.18;;;2.60;;
59054;SDS011;44845;51.444;7.460;2024-02-21T13:40:11;11.20;;;2.78;;
59054;SDS011;44845;51.444;7.460;2024-02-21T13:42:36;6.53;;;2.65;;
59054;SDS011;44845;51.444;7.460;2024-02-21T13:45:02;7.10;;;2.45;;
59054;SDS011;44845;51.444;7.460;2024-02-21T13:47:30;9.48;;;2.50;;
59054;SDS011;44845;51.444;7.460;2024-02-21T13:49:55;9.00;;;2.20;;
59054;SDS011;44845;51.444;7.460;2024-02-21T13:52:21;10.07;;;2.58;;
59054;SDS011;44845;51.444;7.460;2024-02-21T13:54:47;8.23;;;2.35;;
59054;SDS011;44845;51.444;7.460;2024-02-21T13:57:13;7.40;;;2.13;;
59054;SDS011;44845;51.444;7.460;2024-02-21T13:59:39;8.85;;;2.13;;
59054;SDS011;44845;51.444;7.460;2024-02-21T14:02:04;7.80;;;2.80;;
59054;SDS011;44845;51.444;7.460;2024-02-21T14:04:32;7.80;;;2.50;;
59054;SDS011;44845;51.444;7.460;2024-02-21T14:06:58;8.48;;;2.72;;
59054;SDS011;44845;51.444;7.460;2024-02-21T14:09:24;7.63;;;2.60;;
59054;SDS011;44845;51.444;7.460;2024-02-21T14:11:49;8.18;;;2.30;;
59054;SDS011;44845;51.444;7.460;2024-02-21T14:14:14;9.30;;;2.65;;
59054;SDS011;44845;51.444;7.460;2024-02-21T14:16:40;7.97;;;2.60;;
59054;SDS011;44845;51.444;7.460;2024-02-21T14:19:05;9.30;;;2.55;;
59054;SDS011;44845;51.444;7.460;2024-02-21T14:21:32;5.82;;;2.08;;
59054;SDS011;44845;51.444;7.460;2024-02-21T14:23:57;7.55;;;2.20;;
59054;SDS011;44845;51.444;7.460;2024-02-21T14:26:23;6.55;;;2.03;;
59054;SDS011;44845;51.444;7.460;2024-02-21T14:28:48;8.20;;;2.30;;
59054;SDS011;44845;51.444;7.460;2024-02-21T14:31:14;6.40;;;2.30;;
59054;SDS011;44845;51.444;7.460;2024-02-21T14:33:39;8.82;;;2.78;;
59054;SDS011;44845;51.444;7.460;2024-02-21T14:36:05;9.00;;;3.05;;
59054;SDS011;44845;51.444;7.460;2024-02-21T14:38:30;6.45;;;2.35;;
59054;SDS011;44845;51.444;7.460;2024-02-21T14:40:56;10.35;;;2.13;;